Latest Weather Observations for Kowanyama

IDQ60801

Issued at 2:05 pm EST Thursday 21 August 2014 (issued every 30 minutes, with the page automatically refreshed every 10 minutes)

About weather observations | Map of weather stations | Latest weather observations for QLD | Other Formats
Station Details ID: 029038 Name: KOWANYAMA AIRPORT Lat: -15.48 Lon: 141.75 Height: 9.6 m
Data from the previous 72 hours. | See also: Recent months at Kowanyama
Date/Time
EST
Temp
°C
App
Temp
°C
Dew
Point
Rel
Hum
%
Delta-T
°C
Wind Press
QNH
hPa
Press
MSL
hPa
Rain
since 9 am
mm
Dir
 
Spd
km/h
Gust
km/h
Spd
kts
Gust
kts
21/02:00pm 29.6 28.9 14.2 39 9.3 NNW 11 17 6 9 1012.6 1012.5 0.0
21/01:30pm 29.8 29.0 14.0 38 9.5 NNW 11 17 6 9 1013.2 1013.1 0.0
21/01:00pm 29.1 28.8 14.5 41 8.8 NW 9 13 5 7 1013.7 1013.6 0.0
21/12:30pm 28.3 28.2 14.9 44 8.1 NW 9 15 5 8 1014.0 1013.9 0.0
21/12:00pm 26.8 26.7 14.9 48 7.2 N 9 17 5 9 1014.6 1014.6 0.0
21/11:30am 26.4 26.7 15.1 49 6.8 E 7 11 4 6 1015.1 1015.1 0.0
21/11:00am 26.4 26.4 15.1 49 6.8 N 9 17 5 9 1015.6 1015.6 0.0
21/10:30am 26.3 26.1 15.7 52 6.5 NE 11 17 6 9 1016.0 1016.0 0.0
21/10:00am 24.3 23.2 15.2 57 5.5 NE 15 22 8 12 1016.3 1016.3 0.0
21/09:30am 23.6 23.2 15.1 59 5.1 ENE 11 15 6 8 1016.2 1016.2 0.0
21/09:00am 22.9 22.9 14.2 58 5.1 ESE 7 9 4 5 1016.2 1016.2 0.0
21/08:30am 21.5 20.7 11.8 54 5.4 SSE 7 9 4 5 1016.0 1016.0 0.0
21/08:00am 19.9 20.7 12.7 63 4.1 CALM 0 0 0 0 1015.9 1015.9 0.0
21/07:30am 18.9 20.0 13.5 71 3.1 CALM 0 0 0 0 1015.6 1015.6 0.0
21/07:00am 18.1 19.3 13.8 76 2.4 CALM 0 0 0 0 1015.4 1015.4 0.0
21/06:30am 17.5 18.6 13.6 78 2.2 CALM 0 0 0 0 1015.2 1015.2 0.0
21/06:00am 17.6 18.8 13.9 79 2.1 SW 0 0 0 0 1015.0 1015.0 0.0
21/05:30am 17.7 18.9 13.8 78 2.2 CALM 0 0 0 0 1014.8 1014.8 0.0
21/05:00am 17.9 19.2 14.2 79 2.1 CALM 0 0 0 0 1014.6 1014.6 0.0
21/04:30am 18.3 19.6 14.0 76 2.5 CALM 0 0 0 0 1014.4 1014.4 0.0
21/04:00am 18.8 20.1 14.1 74 2.7 CALM 0 0 0 0 1014.6 1014.6 0.0
21/03:30am 18.5 19.8 14.0 75 2.6 CALM 0 0 0 0 1014.8 1014.8 0.0
21/03:00am 17.9 19.2 14.2 79 2.1 CALM 0 0 0 0 1015.2 1015.2 0.0
21/02:30am 17.3 17.2 13.8 80 2.0 NE 7 9 4 5 1015.5 1015.5 0.0
21/02:00am 17.2 18.4 13.9 81 1.9 CALM 0 4 0 2 1015.5 1015.5 0.0
21/01:30am 16.8 17.0 14.1 84 1.5 ENE 6 11 3 6 1015.4 1015.4 0.0
21/01:00am 16.3 16.2 14.0 86 1.3 ENE 7 11 4 6 1015.4 1015.4 0.0
21/12:30am 16.3 17.6 14.1 87 1.2 CALM 0 7 0 4 1015.1 1015.1 0.0
21/12:00am 16.6 17.8 13.7 83 1.6 WSW 0 0 0 0 1014.8 1014.8 0.0
 
Date/Time
EST
Temp
°C
App
Temp
°C
Dew
Point
Rel
Hum
%
Delta-T
°C
Wind Press
QNH
hPa
Press
MSL
hPa
Rain
since 9 am
mm
Dir
 
Spd
km/h
Gust
km/h
Spd
kts
Gust
kts
20/11:30pm 17.1 18.6 14.6 85 1.4 CALM 0 0 0 0 1015.0 1015.0 0.0
20/11:00pm 17.4 18.9 14.7 84 1.6 WSW 0 0 0 0 1015.1 1015.1 0.0
20/10:30pm 17.9 19.2 14.0 78 2.2 CALM 0 0 0 0 1015.2 1015.2 0.0
20/10:00pm 18.7 20.0 14.2 75 2.6 CALM 0 0 0 0 1015.3 1015.3 0.0
20/09:30pm 19.2 20.5 14.2 73 2.9 WSW 0 0 0 0 1015.3 1015.3 0.0
20/09:00pm 19.8 20.5 14.4 71 3.1 SSW 4 6 2 3 1015.1 1015.1 0.0
20/08:30pm 20.5 20.8 14.4 68 3.6 SW 6 9 3 5 1014.6 1014.6 0.0
20/08:00pm 21.0 21.1 14.4 66 3.9 SW 7 11 4 6 1014.4 1014.4 0.0
20/07:30pm 21.8 21.8 14.2 62 4.4 WSW 7 9 4 5 1014.1 1014.0 0.0
20/07:00pm 22.6 22.1 13.9 58 5.1 WSW 9 13 5 7 1013.9 1013.8 0.0
20/06:30pm 23.5 22.7 15.0 59 5.1 W 13 19 7 10 1013.6 1013.5 0.0
20/06:00pm 24.7 23.5 16.2 59 5.2 W 17 20 9 11 1013.5 1013.4 0.0
20/05:30pm 25.9 25.4 17.0 58 5.5 W 15 24 8 13 1013.0 1012.9 0.0
20/05:00pm 26.7 25.7 16.6 54 6.3 W 17 26 9 14 1013.0 1012.9 0.0
20/04:30pm 27.0 25.6 16.6 53 6.4 W 19 24 10 13 1012.9 1012.8 0.0
20/04:00pm 28.1 26.2 16.7 50 7.1 W 22 32 12 17 1012.9 1012.8 0.0
20/03:30pm 28.2 26.6 16.5 49 7.3 W 20 30 11 16 1012.7 1012.6 0.0
20/03:00pm 28.5 26.4 16.1 47 7.7 W 22 30 12 16 1012.8 1012.7 0.0
20/02:30pm 28.3 26.5 15.9 47 7.6 WNW 20 28 11 15 1012.9 1012.8 0.0
20/02:00pm 29.4 27.6 15.9 44 8.4 W 20 30 11 16 1013.2 1013.1 0.0
20/01:30pm 29.5 26.6 15.2 41 8.8 W 24 32 13 17 1013.4 1013.3 0.0
20/01:00pm 29.3 28.8 15.8 44 8.3 NW 13 24 7 13 1013.8 1013.7 0.0
20/12:30pm 29.3 29.0 16.5 46 8.0 NW 13 20 7 11 1014.2 1014.1 0.0
20/12:00pm 28.0 26.9 16.3 49 7.2 NNW 17 24 9 13 1014.5 1014.5 0.0
20/11:30am 28.0 27.5 16.9 51 6.9 NW 15 22 8 12 1015.2 1015.2 0.0
20/11:00am 26.7 26.6 16.9 55 6.1 N 13 22 7 12 1015.8 1015.8 0.0
20/10:30am 26.1 26.0 16.9 57 5.7 N 13 20 7 11 1016.1 1016.1 0.0
20/10:00am 24.6 24.8 16.8 62 4.8 N 11 20 6 11 1016.3 1016.3 0.0
20/09:30am 23.7 24.2 16.5 64 4.4 NNE 9 15 5 8 1016.5 1016.5 0.0
20/09:00am 22.8 22.6 15.6 64 4.3 NE 11 19 6 10 1016.2 1016.2 0.0
20/08:30am 21.5 21.5 14.2 63 4.3 NE 7 15 4 8 1016.2 1016.2 0.0
20/08:00am 18.8 19.4 11.9 64 3.8 CALM 0 0 0 0 1016.0 1016.0 0.0
20/07:30am 15.8 16.2 11.4 75 2.4 CALM 0 0 0 0 1015.6 1015.6 0.0
20/07:00am 14.6 14.6 11.2 80 1.8 ENE 2 7 1 4 1015.2 1015.2 0.0
20/06:30am 14.2 13.4 11.2 82 1.6 ENE 6 7 3 4 1015.1 1015.1 0.0
20/06:00am 13.6 13.5 10.9 84 1.4 NNE 2 7 1 4 1014.7 1014.7 0.0
20/05:30am 13.5 12.5 10.9 84 1.4 NE 7 9 4 5 1014.3 1014.2 0.0
20/05:00am 13.5 13.6 10.3 81 1.7 CALM 0 0 0 0 1014.0 1013.9 0.0
20/04:30am 13.9 14.0 10.3 79 1.9 CALM 0 0 0 0 1014.3 1014.2 0.0
20/04:00am 14.5 14.8 10.9 79 1.9 CALM 0 0 0 0 1014.3 1014.2 0.0
20/03:30am 15.0 15.3 10.8 76 2.2 CALM 0 0 0 0 1014.5 1014.5 0.0
20/03:00am 16.2 16.6 11.2 72 2.7 CALM 0 0 0 0 1014.7 1014.7 0.0
20/02:30am 17.0 16.9 10.8 67 3.3 SE 2 6 1 3 1014.8 1014.8 0.0
20/02:00am 17.0 16.1 10.6 66 3.4 NNE 6 11 3 6 1014.7 1014.7 0.0
20/01:30am 17.3 16.3 10.9 66 3.4 NNE 7 11 4 6 1015.2 1015.2 0.0
20/01:00am 17.5 15.7 12.0 70 3.0 NE 13 17 7 9 1015.3 1015.3 0.0
20/12:30am 16.4 17.0 13.1 81 1.8 SSW 2 9 1 5 1014.8 1014.8 0.0
20/12:00am 17.2 17.9 12.1 72 2.8 CALM 0 0 0 0 1015.0 1015.0 0.0
 
Date/Time
EST
Temp
°C
App
Temp
°C
Dew
Point
Rel
Hum
%
Delta-T
°C
Wind Press
QNH
hPa
Press
MSL
hPa
Rain
since 9 am
mm
Dir
 
Spd
km/h
Gust
km/h
Spd
kts
Gust
kts
19/11:30pm 17.6 18.3 12.1 70 3.0 CALM 0 0 0 0 1015.1 1015.1 0.0
19/11:00pm 17.5 16.7 11.1 66 3.5 W 6 7 3 4 1015.3 1015.3 0.0
19/10:30pm 18.4 18.6 11.9 66 3.6 SSW 2 6 1 3 1015.2 1015.2 0.0
19/10:00pm 18.8 18.1 11.4 62 4.0 W 6 7 3 4 1015.3 1015.3 0.0
19/09:30pm 19.8 18.9 11.3 58 4.7 S 7 11 4 6 1015.3 1015.3 0.0
19/09:00pm 20.0 19.2 11.2 57 4.8 SSW 6 7 3 4 1015.1 1015.1 0.0
19/08:30pm 20.3 18.8 10.4 53 5.4 SW 9 11 5 6 1014.6 1014.6 0.0
19/08:00pm 21.1 19.4 10.0 49 6.0 WSW 9 11 5 6 1014.3 1014.2 0.0
19/07:30pm 21.8 19.3 9.7 46 6.5 WSW 13 17 7 9 1014.0 1013.9 0.0
19/07:00pm 22.5 20.8 10.0 45 6.8 SW 9 15 5 8 1013.7 1013.6 0.0
19/06:30pm 23.4 19.8 8.3 38 8.0 SW 17 22 9 12 1013.3 1013.2 0.0
19/06:00pm 24.9 21.4 7.1 32 9.3 WSW 15 24 8 13 1013.3 1013.2 0.0
19/05:30pm 26.5 22.0 7.0 29 10.3 W 20 26 11 14 1013.0 1012.9 0.0
19/05:00pm 27.7 23.1 6.5 26 11.2 W 20 28 11 15 1012.8 1012.7 0.0
19/04:30pm 28.9 24.5 7.5 26 11.5 W 20 26 11 14 1012.5 1012.4 0.0
19/04:00pm 29.8 25.6 8.2 26 11.8 W 20 28 11 15 1012.2 1012.1 0.0
19/03:30pm 31.0 26.0 8.1 24 12.6 W 24 30 13 16 1012.1 1012.0 0.0
19/03:00pm 31.0 29.7 9.3 26 12.2 ENE 6 11 3 6 1012.3 1012.2 0.0
19/02:30pm 30.8 28.5 9.1 26 12.1 W 11 20 6 11 1012.6 1012.5 0.0
19/02:00pm 30.5 28.4 8.3 25 12.2 N 9 17 5 9 1013.1 1013.0 0.0
19/01:30pm 29.3 26.6 7.2 25 11.9 S 11 15 6 8 1013.7 1013.6 0.0
19/01:00pm 29.1 27.0 6.5 24 12.0 E 7 15 4 8 1014.4 1014.4 0.0
19/12:30pm 29.3 27.4 6.7 24 12.1 SSW 6 15 3 8 1014.9 1014.9 0.0
19/12:00pm 28.2 25.1 5.7 24 11.7 ENE 11 19 6 10 1015.4 1015.4 0.0
19/11:30am 27.5 24.7 5.1 24 11.5 E 9 19 5 10 1016.0 1016.0 0.0
19/11:00am 26.2 23.4 5.2 26 10.7 ESE 9 19 5 10 1016.5 1016.5 0.0
19/10:30am 25.5 22.3 5.1 27 10.3 ESE 11 17 6 9 1017.0 1017.0 0.0
19/10:00am 24.4 20.9 3.7 26 10.1 E 11 15 6 8 1017.3 1017.3 0.0
19/09:30am 23.0 19.5 3.5 28 9.4 ESE 11 15 6 8 1017.5 1017.5 0.0
19/09:00am 21.2 18.0 3.0 30 8.6 E 9 17 5 9 1017.6 1017.6 0.0
19/08:30am 19.7 15.7 3.0 33 7.8 SE 13 19 7 10 1017.4 1017.4 0.0
19/08:00am 17.1 14.2 4.4 43 6.0 SSE 9 13 5 7 1017.4 1017.4 0.0
19/07:30am 13.6 12.4 6.5 62 3.4 SSE 2 6 1 3 1017.1 1017.1 0.0
19/07:00am 11.1 10.5 7.2 77 1.9 CALM 0 0 0 0 1017.0 1017.0 0.0
19/06:30am 11.0 10.4 7.3 78 1.8 CALM 0 0 0 0 1016.8 1016.8 0.0
19/06:00am 11.2 10.5 6.9 75 2.0 CALM 0 0 0 0 1016.6 1016.6 0.0
19/05:30am 11.6 10.8 6.7 72 2.3 CALM 0 0 0 0 1016.2 1016.2 0.0
19/05:00am 12.3 11.7 7.2 71 2.5 CALM 0 0 0 0 1016.0 1016.0 0.0
19/04:30am 13.2 12.2 7.2 67 2.9 SE 2 7 1 4 1016.0 1016.0 0.0
19/04:00am 14.1 13.1 7.2 63 3.4 ENE 2 11 1 6 1016.1 1016.1 0.0
19/03:30am 14.6 12.2 6.9 60 3.8 ENE 9 17 5 9 1016.1 1016.1 0.0
19/03:00am 15.1 13.3 7.2 59 3.9 SSW 6 7 3 4 1015.5 1015.5 0.0
19/02:30am 16.4 14.4 7.1 54 4.6 SE 7 9 4 5 1015.4 1015.4 0.0
19/02:00am 17.3 14.9 7.1 51 5.1 SSE 9 11 5 6 1015.5 1015.5 0.0
19/01:30am 17.6 15.3 7.4 51 5.1 S 9 17 5 9 1015.4 1015.4 0.0
19/01:00am 17.5 15.2 8.9 57 4.4 S 11 13 6 7 1015.3 1015.3 0.0
19/12:30am 16.9 15.6 10.1 64 3.6 S 7 11 4 6 1015.6 1015.6 0.0
19/12:00am 17.7 15.9 10.8 64 3.7 SSW 11 17 6 9 1015.6 1015.6 0.0
 
Date/Time
EST
Temp
°C
App
Temp
°C
Dew
Point
Rel
Hum
%
Delta-T
°C
Wind Press
QNH
hPa
Press
MSL
hPa
Rain
since 9 am
mm
Dir
 
Spd
km/h
Gust
km/h
Spd
kts
Gust
kts
18/11:30pm 17.8 15.8 11.6 67 3.4 SSW 13 17 7 9 1015.6 1015.6 0.0
18/11:00pm 17.3 16.5 11.8 70 3.0 SSW 7 9 4 5 1015.8 1015.8 0.0
18/10:30pm 17.9 16.7 11.7 67 3.4 SW 9 11 5 6 1015.9 1015.9 0.0
18/10:00pm 18.4 16.9 11.9 66 3.6 SSW 11 15 6 8 1015.9 1015.9 0.0
18/09:30pm 18.5 17.3 11.6 64 3.8 SW 9 11 5 6 1015.8 1015.8 0.0
18/09:00pm 19.0 17.3 11.3 61 4.2 SW 11 15 6 8 1015.6 1015.6 0.0
18/08:30pm 19.6 18.0 11.4 59 4.5 SSW 11 15 6 8 1015.4 1015.4 0.0
18/08:00pm 20.2 18.5 11.1 56 5.0 SW 11 17 6 9 1015.2 1015.2 0.0
18/07:30pm 20.9 19.1 10.7 52 5.6 SW 11 15 6 8 1014.7 1014.7 0.0
18/07:00pm 22.0 19.6 9.9 46 6.6 WSW 13 17 7 9 1014.2 1014.1 0.0
18/06:30pm 23.8 20.6 8.6 38 8.1 SW 15 20 8 11 1013.9 1013.8 0.0
18/06:00pm 26.0 22.2 7.6 31 9.8 W 17 22 9 12 1013.5 1013.4 0.0
18/05:30pm 27.7 23.4 7.0 27 11.0 W 19 26 10 14 1013.4 1013.3 0.0
18/05:00pm 30.2 27.2 0.7 15 14.3 WSW 6 11 3 6 1013.0 1012.9 0.0
18/04:30pm 30.1 26.5 0.6 15 14.2 WSW 9 13 5 7 1012.9 1012.8 0.0
18/04:00pm 29.9 26.3 0.5 15 14.1 SW 9 13 5 7 1013.0 1012.9 0.0
18/03:30pm 30.7 28.1 1.1 15 14.5 N 4 7 2 4 1013.0 1012.9 0.0
18/03:00pm 29.2 26.0 0.8 16 13.7 E 7 9 4 5 1013.2 1013.1 0.0
18/02:30pm 29.3 26.3 1.7 17 13.5 ENE 7 13 4 7 1013.5 1013.4 0.0

Other Formats:

Comma delimited format used in spreadsheet applications
http://www.bom.gov.au/fwo/IDQ60801/IDQ60801.94268.axf

JavaScript Object Notation format (JSON) in row-major order
http://www.bom.gov.au/fwo/IDQ60801/IDQ60801.94268.json